HKJK

Jomo Kenyatta International Airport

Airport
ICAO code
HKJK
IATA Code
NBO
Summary
ICAO Region
AFI
ICAO Territory
Location

Embakasi, Nairobi

Serving
Nairobi
Elevation
5330 ft
Coordinates
1° 19' 5" S , 36° 55' 45" E
KCC
Cwb
Metar
Observation
HKJK 101000Z 15005KT 9999 BKN027 22/12 Q1022 NOSIG
Station
Nairobi/Jomo Kenyatta Airport TWR/APP/NOF/Civil Airlines
Date/Time
2022-08-10 10:00:00
Wind direction
150°
Wind speed
05 kts
Lowest cloud amount
broken clouds
Temperature
22°C
Dew point
12°C
Humidity
53%
QNH
1022 hPa
Weather condition
n/a

International airport serving Nairobi, Kenya.

Climatology

Sub-tropical Highland climate (Köppen climate classification Cwb)

Runways

Designator Length Width Surface Rops
6/24 4117 45 ASP Yes/Yes

Airport map

Aerial View

SKYbrary Partners:

Safety knowledge contributed by: